Time;durP1;ratioP1;P1;durP2;ratioP2;P2;SDS_P1;SDS_P2;PMS_P1;PMS_P2;Temp;Humidity;BMP_temperature;BMP_pressure;BME280_temperature;BME280_humidity;BME280_pressure;Samples;Min_cycle;Max_cycle;Signal;HPM_P1;HPM_P2
2021/07/23 00:01:25;;;;;;;;;;;;;;;19.45;nan;99659.41;4863243;29;19928;-80
2021/07/23 00:03:53;;;;;;;;;;;;;;;19.34;nan;99664.72;4848165;29;20406;-80
2021/07/23 00:06:29;;;;;;;;;;;;;;;19.32;nan;99667.25;4880228;29;19934;-81
2021/07/23 00:08:56;;;;;;;;;;;;;;;19.52;nan;99664.75;4880001;29;20380;-80
2021/07/23 00:11:23;;;;;;;;;;;;;;;19.50;nan;99661.63;4879980;29;19928;-80
2021/07/23 00:13:50;;;;;;;;;;;;;;;19.10;nan;99660.84;4863426;29;20295;-81
2021/07/23 00:16:17;;;;;;;;;;;;;;;19.22;nan;99664.84;4879909;29;19932;-81
2021/07/23 00:18:44;;;;;;;;;;;;;;;19.33;nan;99660.31;4863387;29;20361;-80
2021/07/23 00:21:11;;;;;;;;;;;;;;;19.29;nan;99662.53;4879860;29;19934;-80
2021/07/23 00:23:38;;;;;;;;;;;;;;;19.36;nan;99661.41;4864076;29;19935;-80
2021/07/23 00:26:12;;;;;;;;;;;;;;;19.31;nan;99660.00;4866726;29;19935;-80
2021/07/23 00:28:40;;;;;;;;;;;;;;;19.34;nan;99659.06;4866824;29;20295;-80
2021/07/23 00:31:07;;;;;;;;;;;;;;;19.37;nan;99646.78;4883190;29;20125;-80
2021/07/23 00:33:34;;;;;;;;;;;;;;;19.35;nan;99640.03;4883558;29;19928;-80
2021/07/23 00:36:01;;;;;;;;;;;;;;;19.16;nan;99647.66;4851605;29;19951;-80
2021/07/23 00:38:29;;;;;;;;;;;;;;;19.13;nan;99639.31;4883289;29;20574;-80
2021/07/23 00:40:56;;;;;;;;;;;;;;;19.05;nan;99646.53;4866579;29;19934;-80
2021/07/23 00:43:24;;;;;;;;;;;;;;;19.03;nan;99643.34;4866811;29;19979;-80
2021/07/23 00:45:51;;;;;;;;;;;;;;;19.07;nan;99639.13;4882812;29;20304;-80
2021/07/23 00:48:19;;;;;;;;;;;;;;;18.93;nan;99633.28;4851126;29;19954;-80
2021/07/23 00:50:47;;;;;;;;;;;;;;;18.79;nan;99626.13;4883051;29;19962;-80
2021/07/23 00:53:14;;;;;;;;;;;;;;;18.68;nan;99631.44;4866313;29;19979;-80
2021/07/23 00:55:50;;;;;;;;;;;;;;;18.66;nan;99627.50;4866513;29;20387;-80
2021/07/23 00:58:17;;;;;;;;;;;;;;;18.62;nan;99635.31;4882850;29;19935;-80
2021/07/23 01:00:44;;;;;;;;;;;;;;;18.55;nan;99639.25;4865918;29;20402;-80
2021/07/23 01:03:14;;;;;;;;;;;;;;;18.62;nan;99635.31;4881307;29;19928;-79
2021/07/23 01:05:41;;;;;;;;;;;;;;;18.40;nan;99634.59;4850410;29;19935;-80
2021/07/23 01:08:08;;;;;;;;;;;;;;;18.30;nan;99627.25;4882608;29;19931;-80
2021/07/23 01:10:38;;;;;;;;;;;;;;;18.34;nan;99631.53;4866047;29;19934;-80
2021/07/23 01:13:24;;;;;;;;;;;;;;;18.36;nan;99631.09;4866001;29;20427;-80
2021/07/23 01:15:51;;;;;;;;;;;;;;;18.32;nan;99625.56;4865566;29;19927;-80
2021/07/23 01:18:22;;;;;;;;;;;;;;;18.31;nan;99620.34;4881466;29;19928;-80
2021/07/23 01:20:56;;;;;;;;;;;;;;;18.29;nan;99618.00;4882656;29;19934;-80
2021/07/23 01:23:34;;;;;;;;;;;;;;;18.13;nan;99626.66;4850354;29;19927;-81
2021/07/23 01:26:07;;;;;;;;;;;;;;;18.19;nan;99624.06;4864058;29;19936;-80
2021/07/23 01:28:35;;;;;;;;;;;;;;;18.17;nan;99624.50;4881916;29;19928;-80
2021/07/23 01:31:09;;;;;;;;;;;;;;;18.17;nan;99615.22;4865867;29;20407;-80
2021/07/23 01:33:37;;;;;;;;;;;;;;;18.14;nan;99611.28;4866047;29;19928;-80
2021/07/23 01:36:07;;;;;;;;;;;;;;;18.07;nan;99605.88;4864627;29;19979;-80
2021/07/23 01:38:41;;;;;;;;;;;;;;;17.91;nan;99611.75;4882929;29;19928;-80
2021/07/23 01:41:09;;;;;;;;;;;;;;;17.86;nan;99612.34;4872866;29;19931;-80
2021/07/23 01:43:37;;;;;;;;;;;;;;;17.81;nan;99610.13;4850059;29;19975;-80
2021/07/23 01:46:04;;;;;;;;;;;;;;;17.79;nan;99607.75;4865605;29;19928;-80
2021/07/23 01:48:41;;;;;;;;;;;;;;;17.74;nan;99613.97;4866998;29;19975;-80
2021/07/23 01:51:32;;;;;;;;;;;;;;;17.78;nan;99605.38;4866896;29;19928;-80
2021/07/23 01:53:59;;;;;;;;;;;;;;;17.78;nan;99611.81;4865667;29;19931;-80
2021/07/23 01:56:28;;;;;;;;;;;;;;;17.74;nan;99604.72;4865109;29;19934;-80
2021/07/23 01:58:58;;;;;;;;;;;;;;;17.72;nan;99605.16;4849665;29;19927;-80
2021/07/23 02:01:30;;;;;;;;;;;;;;;17.55;nan;99605.81;4865200;29;19983;-80
2021/07/23 02:04:14;;;;;;;;;;;;;;;17.62;nan;99608.38;4867612;29;19928;-80
2021/07/23 02:06:42;;;;;;;;;;;;;;;17.62;nan;99602.72;4865113;29;19927;-80
2021/07/23 02:09:11;;;;;;;;;;;;;;;17.58;nan;99604.91;4881929;29;19928;-80
2021/07/23 02:11:48;;;;;;;;;;;;;;;17.51;nan;99596.66;4864816;29;19934;-80
2021/07/23 02:14:16;;;;;;;;;;;;;;;17.46;nan;99588.78;4865041;29;20291;-80
2021/07/23 02:16:45;;;;;;;;;;;;;;;17.12;nan;99600.03;4880321;29;20300;-80
2021/07/23 02:19:12;;;;;;;;;;;;;;;17.29;nan;99604.28;4880276;29;20315;-80
2021/07/23 02:21:54;;;;;;;;;;;;;;;17.25;nan;99606.44;4880370;29;20360;-80
2021/07/23 02:24:22;;;;;;;;;;;;;;;17.27;nan;99606.75;4881037;29;19943;-80
2021/07/23 02:26:49;;;;;;;;;;;;;;;17.20;nan;99609.84;4833838;29;19931;-80
2021/07/23 02:29:17;;;;;;;;;;;;;;;17.24;nan;99593.56;4865201;29;19928;-80
2021/07/23 02:31:47;;;;;;;;;;;;;;;17.24;nan;99607.66;4881037;29;19928;-80
2021/07/23 02:34:22;;;;;;;;;;;;;;;16.67;nan;99607.97;4880075;29;19943;-80
2021/07/23 02:36:54;;;;;;;;;;;;;;;16.91;nan;99610.00;4880095;29;19928;-80
2021/07/23 02:39:24;;;;;;;;;;;;;;;17.22;nan;99591.19;4881032;29;19983;-80
2021/07/23 02:41:59;;;;;;;;;;;;;;;17.07;nan;99600.63;4864074;29;19928;-80
2021/07/23 02:44:29;;;;;;;;;;;;;;;17.04;nan;99598.69;4849063;29;19928;-81
2021/07/23 02:46:56;;;;;;;;;;;;;;;16.95;nan;99598.59;4848963;29;19934;-80
2021/07/23 02:49:28;;;;;;;;;;;;;;;17.28;nan;99602.72;4867608;29;19928;-80
2021/07/23 02:51:57;;;;;;;;;;;;;;;17.30;nan;99595.34;4880952;29;19934;-80
2021/07/23 02:54:24;;;;;;;;;;;;;;;17.41;nan;99584.47;4880839;29;19928;-80
2021/07/23 02:56:53;;;;;;;;;;;;;;;17.40;nan;99579.28;4863869;29;20377;-80
2021/07/23 02:59:23;;;;;;;;;;;;;;;17.55;nan;99588.88;4880771;29;19934;-80
2021/07/23 03:01:54;;;;;;;;;;;;;;;17.43;nan;99578.38;4864924;29;19935;-80
2021/07/23 03:04:24;;;;;;;;;;;;;;;17.12;nan;99585.91;4864027;29;19927;-80
2021/07/23 03:06:52;;;;;;;;;;;;;;;17.41;nan;99580.84;4848524;29;20295;-80
2021/07/23 03:09:20;;;;;;;;;;;;;;;17.67;nan;99588.81;4863703;29;20372;-80
2021/07/23 03:11:47;;;;;;;;;;;;;;;17.64;nan;99578.44;4864151;29;19927;-80
2021/07/23 03:14:16;;;;;;;;;;;;;;;17.86;nan;99578.41;4864040;29;19934;-80
2021/07/23 03:17:15;;;;;;;;;;;;;;;17.93;nan;99570.47;4869802;29;19927;-80
2021/07/23 03:19:43;;;;;;;;;;;;;;;18.03;nan;99565.66;4863896;29;19928;-80
2021/07/23 03:22:13;;;;;;;;;;;;;;;18.10;nan;99565.38;4863552;29;19928;-80
2021/07/23 03:24:42;;;;;;;;;;;;;;;18.15;nan;99567.63;4863791;29;19928;-80
2021/07/23 03:27:14;;;;;;;;;;;;;;;18.15;nan;99556.31;4863656;29;19956;-80
2021/07/23 03:30:02;;;;;;;;;;;;;;;18.23;nan;99554.78;4880135;29;19927;-80
2021/07/23 03:32:33;;;;;;;;;;;;;;;18.29;nan;99550.09;4848176;29;19935;-80
2021/07/23 03:35:01;;;;;;;;;;;;;;;18.34;nan;99554.38;4863550;29;19935;-80
2021/07/23 03:37:37;;;;;;;;;;;;;;;18.13;nan;99564.44;4863404;29;19928;-80
2021/07/23 03:40:37;;;;;;;;;;;;;;;18.17;nan;99553.81;4877228;29;19975;-80
2021/07/23 03:43:10;;;;;;;;;;;;;;;18.26;nan;99551.03;4863766;29;19986;-80
2021/07/23 03:45:48;;;;;;;;;;;;;;;18.26;nan;99545.38;4863612;29;20380;-80
2021/07/23 03:48:16;;;;;;;;;;;;;;;18.26;nan;99547.41;4878981;29;20396;-80
2021/07/23 03:50:48;;;;;;;;;;;;;;;18.26;nan;99545.38;4849129;29;19928;-80
2021/07/23 03:53:21;;;;;;;;;;;;;;;18.44;nan;99551.16;4863319;29;19934;-80
2021/07/23 03:55:49;;;;;;;;;;;;;;;18.53;nan;99554.00;4863442;29;19928;-80
2021/07/23 03:58:37;;;;;;;;;;;;;;;18.63;nan;99544.28;4830924;29;20021;-80
2021/07/23 04:01:06;;;;;;;;;;;;;;;18.76;nan;99539.31;4882429;29;19928;-80
2021/07/23 04:03:35;;;;;;;;;;;;;;;18.70;nan;99538.34;4852454;29;19935;-80
2021/07/23 04:06:04;;;;;;;;;;;;;;;18.56;nan;99536.09;4866945;29;19932;-80
2021/07/23 04:08:34;;;;;;;;;;;;;;;18.71;nan;99545.56;4867403;29;20295;-80
2021/07/23 04:11:02;;;;;;;;;;;;;;;18.74;nan;99544.66;4851610;29;19928;-80
2021/07/23 04:13:32;;;;;;;;;;;;;;;18.85;nan;99547.03;4867053;29;19927;-80
2021/07/23 04:16:01;;;;;;;;;;;;;;;18.91;nan;99536.66;4866878;29;19934;-80
2021/07/23 04:18:33;;;;;;;;;;;;;;;19.02;nan;99540.63;4867888;29;19934;-80
2021/07/23 04:21:13;;;;;;;;;;;;;;;19.03;nan;99536.53;4866747;29;19928;-80
2021/07/23 04:23:40;;;;;;;;;;;;;;;19.03;nan;99533.72;4851355;29;19932;-80
2021/07/23 04:26:08;;;;;;;;;;;;;;;19.06;nan;99521.44;4882515;29;19934;-80
2021/07/23 04:28:36;;;;;;;;;;;;;;;18.96;nan;99524.72;4883533;29;19928;-80
2021/07/23 04:31:04;;;;;;;;;;;;;;;18.67;nan;99530.78;4866808;29;19927;-80
2021/07/23 04:33:52;;;;;;;;;;;;;;;18.66;nan;99531.25;4882428;29;19957;-80
2021/07/23 04:36:40;;;;;;;;;;;;;;;18.13;nan;99519.22;4872737;29;19928;-80
2021/07/23 04:39:18;;;;;;;;;;;;;;;17.92;nan;99531.34;4851976;29;19979;-79
2021/07/23 04:41:48;;;;;;;;;;;;;;;17.81;nan;99519.66;4865388;29;19927;-80
2021/07/23 04:44:15;;;;;;;;;;;;;;;18.29;nan;99530.31;4864051;29;19928;-80
2021/07/23 04:46:46;;;;;;;;;;;;;;;18.36;nan;99524.34;4865552;29;19928;-80
2021/07/23 04:49:14;;;;;;;;;;;;;;;18.03;nan;99526.06;4882651;29;19927;-80
2021/07/23 04:51:43;;;;;;;;;;;;;;;18.01;nan;99533.44;4865989;29;19927;-79
2021/07/23 04:54:45;;;;;;;;;;;;;;;17.98;nan;99533.13;4882257;29;19931;-80
2021/07/23 04:57:44;;;;;;;;;;;;;;;18.22;nan;99527.72;4865092;29;19975;-80
2021/07/23 05:00:12;;;;;;;;;;;;;;;17.96;nan;99526.38;4866482;29;19992;-80
2021/07/23 05:02:41;;;;;;;;;;;;;;;18.04;nan;99529.69;4882743;29;20328;-80
2021/07/23 05:05:10;;;;;;;;;;;;;;;17.86;nan;99528.34;4882669;29;19934;-80
2021/07/23 05:07:38;;;;;;;;;;;;;;;18.06;nan;99530.00;4882278;29;19956;-80
2021/07/23 05:10:07;;;;;;;;;;;;;;;17.68;nan;99527.41;4865978;29;19928;-80
2021/07/23 05:12:40;;;;;;;;;;;;;;;17.81;nan;99537.41;4865149;29;19928;-80
2021/07/23 05:15:08;;;;;;;;;;;;;;;17.74;nan;99531.22;4882596;29;19927;-80
2021/07/23 05:17:37;;;;;;;;;;;;;;;17.81;nan;99533.81;4867215;29;19928;-80
2021/07/23 05:20:06;;;;;;;;;;;;;;;18.18;nan;99538.41;4882152;29;19932;-80
2021/07/23 05:22:33;;;;;;;;;;;;;;;18.18;nan;99534.78;4882142;29;20419;-80
2021/07/23 05:25:01;;;;;;;;;;;;;;;18.26;nan;99528.41;4881119;29;20536;-79
2021/07/23 05:27:29;;;;;;;;;;;;;;;18.35;nan;99534.09;4895602;29;19927;-80
2021/07/23 05:29:57;;;;;;;;;;;;;;;18.13;nan;99524.09;4880117;29;20022;-81
2021/07/23 05:32:24;;;;;;;;;;;;;;;18.31;nan;99541.91;4869050;29;20380;-82
2021/07/23 05:34:52;;;;;;;;;;;;;;;18.55;nan;99531.69;4850267;29;19928;-81
2021/07/23 05:37:19;;;;;;;;;;;;;;;18.36;nan;99532.84;4865390;29;19928;-80
2021/07/23 05:39:47;;;;;;;;;;;;;;;18.34;nan;99535.38;4889627;29;19927;-79
2021/07/23 05:42:16;;;;;;;;;;;;;;;18.07;nan;99531.59;4883853;29;19927;-80
2021/07/23 05:44:43;;;;;;;;;;;;;;;17.95;nan;99534.03;4890882;29;20332;-80
2021/07/23 05:47:11;;;;;;;;;;;;;;;18.17;nan;99536.84;4882012;29;19932;-80
2021/07/23 05:49:38;;;;;;;;;;;;;;;18.16;nan;99535.25;4877317;29;19983;-80
2021/07/23 05:52:06;;;;;;;;;;;;;;;18.29;nan;99535.16;4862047;29;19935;-80
2021/07/23 05:54:33;;;;;;;;;;;;;;;18.38;nan;99524.72;4859372;29;19928;-80
2021/07/23 05:57:00;;;;;;;;;;;;;;;18.70;nan;99529.88;4846847;29;20292;-81
2021/07/23 05:59:27;;;;;;;;;;;;;;;18.82;nan;99526.13;4881577;29;19938;-80
2021/07/23 06:01:54;;;;;;;;;;;;;;;18.66;nan;99517.88;4873569;29;19929;-80
2021/07/23 06:04:22;;;;;;;;;;;;;;;18.53;nan;99520.06;4881303;29;20272;-80
2021/07/23 06:06:49;;;;;;;;;;;;;;;18.64;nan;99517.59;4875396;29;19928;-80
2021/07/23 06:09:16;;;;;;;;;;;;;;;18.28;nan;99522.28;4865535;29;19928;-80
2021/07/23 06:11:44;;;;;;;;;;;;;;;18.24;nan;99518.78;4861145;29;19928;-80
2021/07/23 06:14:11;;;;;;;;;;;;;;;18.17;nan;99525.53;4864762;29;20005;-80
2021/07/23 06:16:42;;;;;;;;;;;;;;;18.41;nan;99523.78;4865073;29;20421;-80
2021/07/23 06:19:09;;;;;;;;;;;;;;;18.71;nan;99520.09;4856146;29;19935;-80
2021/07/23 06:21:36;;;;;;;;;;;;;;;18.81;nan;99518.88;4849127;29;19975;-80
2021/07/23 06:24:04;;;;;;;;;;;;;;;18.77;nan;99511.78;4881262;29;20376;-80
2021/07/23 06:26:31;;;;;;;;;;;;;;;18.56;nan;99513.47;4859015;29;19928;-80
2021/07/23 06:28:59;;;;;;;;;;;;;;;18.58;nan;99519.44;4864725;29;19928;-81
2021/07/23 06:31:26;;;;;;;;;;;;;;;18.69;nan;99528.28;4874333;29;20291;-80
2021/07/23 06:33:54;;;;;;;;;;;;;;;18.94;nan;99522.38;4865772;29;19957;-79
2021/07/23 06:36:21;;;;;;;;;;;;;;;18.99;nan;99510.41;4883445;29;20367;-80
2021/07/23 06:38:48;;;;;;;;;;;;;;;18.87;nan;99510.56;4866396;29;19934;-80
2021/07/23 06:41:15;;;;;;;;;;;;;;;19.09;nan;99512.00;4864446;29;19983;-80
2021/07/23 06:43:42;;;;;;;;;;;;;;;18.73;nan;99508.31;4864670;29;19934;-80
2021/07/23 06:46:10;;;;;;;;;;;;;;;18.36;nan;99512.25;4849081;29;19934;-80
2021/07/23 06:48:37;;;;;;;;;;;;;;;18.45;nan;99512.34;4880881;29;19983;-80
2021/07/23 06:51:04;;;;;;;;;;;;;;;18.41;nan;99512.47;4880893;29;19928;-80
2021/07/23 06:53:32;;;;;;;;;;;;;;;18.55;nan;99506.22;4834221;29;19928;-80
2021/07/23 06:59:17;;;;;;;;;;;;;;;19.01;nan;99507.09;4863916;29;19934;-80
2021/07/23 07:01:44;;;;;;;;;;;;;;;19.13;nan;99515.47;4848301;29;19935;-80
2021/07/23 07:04:12;;;;;;;;;;;;;;;19.17;nan;99504.00;4880862;29;19959;-80
2021/07/23 07:06:39;;;;;;;;;;;;;;;19.04;nan;99504.13;4864367;29;19935;-80
2021/07/23 07:09:06;;;;;;;;;;;;;;;19.20;nan;99506.66;4879089;29;19928;-80
2021/07/23 07:11:33;;;;;;;;;;;;;;;19.20;nan;99505.88;4878137;29;19927;-80
2021/07/23 07:14:00;;;;;;;;;;;;;;;19.40;nan;99498.50;4864236;29;19931;-80
2021/07/23 07:16:27;;;;;;;;;;;;;;;19.05;nan;99499.25;4863992;29;20368;-81
2021/07/23 07:18:55;;;;;;;;;;;;;;;19.38;nan;99498.22;4863732;29;20383;-80
2021/07/23 07:21:22;;;;;;;;;;;;;;;19.33;nan;99498.81;4880309;29;19932;-80
2021/07/23 07:23:49;;;;;;;;;;;;;;;19.60;nan;99495.97;4879090;29;20361;-80
2021/07/23 07:26:17;;;;;;;;;;;;;;;19.69;nan;99487.44;4866101;29;20299;-80
2021/07/23 07:28:44;;;;;;;;;;;;;;;19.49;nan;99490.00;4855298;29;20383;-80
2021/07/23 07:31:16;;;;;;;;;;;;;;;19.47;nan;99489.69;4847674;29;20500;-80
2021/07/23 07:33:43;;;;;;;;;;;;;;;19.68;nan;99491.56;4845114;29;20388;-80
2021/07/23 07:36:17;;;;;;;;;;;;;;;19.55;nan;99488.09;4863539;29;19928;-80
2021/07/23 07:38:45;;;;;;;;;;;;;;;19.48;nan;99488.44;4847607;29;19979;-80
2021/07/23 07:41:19;;;;;;;;;;;;;;;19.57;nan;99485.56;4849948;29;19932;-80
2021/07/23 07:43:46;;;;;;;;;;;;;;;19.86;nan;99481.44;4877587;29;19944;-80
2021/07/23 07:46:13;;;;;;;;;;;;;;;19.86;nan;99478.63;4870815;29;19979;-80
2021/07/23 07:48:41;;;;;;;;;;;;;;;19.89;nan;99478.44;4870422;29;19928;-80
2021/07/23 07:51:08;;;;;;;;;;;;;;;20.07;nan;99480.44;4863457;29;20340;-80
2021/07/23 07:53:40;;;;;;;;;;;;;;;20.13;nan;99481.41;4859380;29;19928;-80
2021/07/23 07:56:08;;;;;;;;;;;;;;;20.09;nan;99475.84;4876215;29;19928;-80
2021/07/23 07:58:35;;;;;;;;;;;;;;;20.08;nan;99467.81;4879987;29;19931;-80
2021/07/23 08:01:06;;;;;;;;;;;;;;;19.88;nan;99473.22;4866828;29;19938;-80
2021/07/23 08:03:34;;;;;;;;;;;;;;;19.83;nan;99473.91;4861555;29;19936;-81
2021/07/23 08:06:05;;;;;;;;;;;;;;;20.05;nan;99463.09;4832287;29;19943;-80
2021/07/23 08:08:32;;;;;;;;;;;;;;;19.92;nan;99465.38;4879852;29;19932;-80
2021/07/23 08:11:00;;;;;;;;;;;;;;;20.00;nan;99466.56;4867084;29;19928;-79
2021/07/23 08:13:27;;;;;;;;;;;;;;;19.97;nan;99476.03;4879614;29;19986;-80
2021/07/23 08:15:56;;;;;;;;;;;;;;;19.99;nan;99477.16;4849731;29;20390;-80
2021/07/23 08:18:23;;;;;;;;;;;;;;;19.69;nan;99469.66;4865641;29;19934;-79
2021/07/23 08:20:51;;;;;;;;;;;;;;;20.00;nan;99464.53;4879037;29;19928;-79
2021/07/23 08:23:19;;;;;;;;;;;;;;;19.87;nan;99458.28;4862091;29;19938;-79
2021/07/23 08:25:47;;;;;;;;;;;;;;;19.93;nan;99461.25;4856791;29;19928;-79
2021/07/23 08:28:16;;;;;;;;;;;;;;;19.91;nan;99463.78;4860972;29;20419;-79
2021/07/23 08:30:43;;;;;;;;;;;;;;;20.04;nan;99461.53;4866383;29;19928;-79
2021/07/23 08:33:11;;;;;;;;;;;;;;;20.24;nan;99458.94;4850851;29;19931;-79
2021/07/23 08:35:39;;;;;;;;;;;;;;;20.07;nan;99454.91;4862601;29;20387;-79
2021/07/23 08:38:06;;;;;;;;;;;;;;;20.20;nan;99452.66;4862787;29;19928;-79
2021/07/23 08:40:33;;;;;;;;;;;;;;;19.70;nan;99455.00;4862485;29;19928;-79
2021/07/23 08:43:02;;;;;;;;;;;;;;;19.83;nan;99460.47;4862655;29;19983;-79
2021/07/23 08:45:29;;;;;;;;;;;;;;;19.95;nan;99465.16;4864640;29;19938;-79
2021/07/23 08:47:57;;;;;;;;;;;;;;;19.95;nan;99470.06;4866157;29;19934;-79
2021/07/23 08:50:24;;;;;;;;;;;;;;;20.03;nan;99455.06;4866196;29;19932;-78
2021/07/23 08:52:54;;;;;;;;;;;;;;;20.29;nan;99456.25;4878879;29;20327;-77
2021/07/23 08:55:22;;;;;;;;;;;;;;;20.15;nan;99448.44;4865736;29;20320;-77
2021/07/23 08:57:51;;;;;;;;;;;;;;;19.65;nan;99452.03;4881777;29;19934;-77
2021/07/23 09:00:22;;;;;;;;;;;;;;;19.05;nan;99459.59;4873339;29;19979;-77
2021/07/23 09:02:57;;;;;;;;;;;;;;;19.24;nan;99459.13;4857126;29;20427;-77
2021/07/23 09:05:31;;;;;;;;;;;;;;;19.34;nan;99455.06;4850211;29;19928;-77
2021/07/23 09:08:18;;;;;;;;;;;;;;;19.88;nan;99448.50;4880515;29;20384;-78
2021/07/23 09:10:47;;;;;;;;;;;;;;;19.45;nan;99440.41;4865481;29;19938;-78
2021/07/23 09:13:22;;;;;;;;;;;;;;;19.72;nan;99439.56;4855131;29;20720;-78
2021/07/23 09:15:49;;;;;;;;;;;;;;;19.58;nan;99441.78;4871021;29;19961;-77
2021/07/23 09:18:21;;;;;;;;;;;;;;;19.89;nan;99433.06;4864789;29;19928;-77
2021/07/23 09:21:04;;;;;;;;;;;;;;;19.78;nan;99437.66;4873167;29;19928;-77
2021/07/23 09:23:34;;;;;;;;;;;;;;;19.85;nan;99432.44;4858912;29;19938;-77
2021/07/23 09:26:13;;;;;;;;;;;;;;;19.80;nan;99435.91;4871960;29;19931;-77
2021/07/23 09:28:41;;;;;;;;;;;;;;;20.31;nan;99418.91;4868097;29;19956;-77
2021/07/23 09:31:10;;;;;;;;;;;;;;;20.52;nan;99417.81;4864888;29;20721;-77
2021/07/23 09:33:40;;;;;;;;;;;;;;;20.47;nan;99407.91;4860028;29;19927;-77
2021/07/23 09:36:08;;;;;;;;;;;;;;;20.77;nan;99401.09;4883603;29;19934;-77
2021/07/23 09:38:42;;;;;;;;;;;;;;;20.60;nan;99413.38;4864148;29;19928;-77
2021/07/23 09:41:24;;;;;;;;;;;;;;;20.31;nan;99407.53;4836628;29;19936;-79
2021/07/23 09:43:58;;;;;;;;;;;;;;;20.84;nan;99405.63;4860884;29;19954;-78
2021/07/23 09:46:27;;;;;;;;;;;;;;;20.91;nan;99400.34;4871638;29;19991;-78
2021/07/23 09:48:56;;;;;;;;;;;;;;;20.94;nan;99401.44;4867648;29;20292;-78
2021/07/23 09:51:27;;;;;;;;;;;;;;;21.00;nan;99403.16;4849400;29;19932;-78
2021/07/23 09:53:55;;;;;;;;;;;;;;;20.41;nan;99398.50;4861502;29;19928;-78
2021/07/23 09:56:24;;;;;;;;;;;;;;;20.28;nan;99402.81;4865716;29;20403;-78
2021/07/23 09:58:58;;;;;;;;;;;;;;;20.56;nan;99402.19;4880934;29;20361;-78
2021/07/23 10:01:29;;;;;;;;;;;;;;;20.95;nan;99397.34;4876285;29;19931;-78
2021/07/23 10:04:00;;;;;;;;;;;;;;;20.44;nan;99391.06;4855091;29;19940;-78
2021/07/23 10:06:34;;;;;;;;;;;;;;;20.65;nan;99387.91;4874629;29;19928;-78
2021/07/23 10:09:07;;;;;;;;;;;;;;;20.60;nan;99387.81;4855187;29;19934;-78
2021/07/23 10:11:35;;;;;;;;;;;;;;;20.43;nan;99398.00;4858969;29;19931;-79
2021/07/23 10:14:03;;;;;;;;;;;;;;;20.96;nan;99393.25;4880319;29;19928;-79
2021/07/23 10:16:32;;;;;;;;;;;;;;;20.91;nan;99389.00;4879476;29;19929;-78
2021/07/23 10:19:01;;;;;;;;;;;;;;;20.71;nan;99385.97;4877604;29;19935;-78
2021/07/23 10:21:28;;;;;;;;;;;;;;;20.87;nan;99381.94;4880489;29;19928;-78
2021/07/23 10:23:56;;;;;;;;;;;;;;;21.24;nan;99381.16;4834912;29;20407;-78
2021/07/23 10:26:25;;;;;;;;;;;;;;;21.39;nan;99372.63;4841736;29;19939;-80
2021/07/23 10:28:54;;;;;;;;;;;;;;;21.49;nan;99376.94;4842842;29;19928;-79
2021/07/23 10:31:24;;;;;;;;;;;;;;;21.56;nan;99376.53;4843127;29;19935;-79
2021/07/23 10:33:53;;;;;;;;;;;;;;;21.42;nan;99374.47;4842692;29;19980;-80
2021/07/23 10:36:26;;;;;;;;;;;;;;;21.44;nan;99380.47;4858326;29;19960;-80
2021/07/23 10:39:06;;;;;;;;;;;;;;;21.30;nan;99384.06;4842823;29;20309;-80
2021/07/23 10:41:36;;;;;;;;;;;;;;;21.24;nan;99371.81;4842944;29;19938;-80
2021/07/23 10:44:05;;;;;;;;;;;;;;;21.20;nan;99372.00;4858474;29;19935;-80
2021/07/23 10:46:55;;;;;;;;;;;;;;;21.51;nan;99373.63;4809650;29;19935;-81
2021/07/23 10:49:31;;;;;;;;;;;;;;;21.40;nan;99368.50;4821885;29;20315;-80
2021/07/23 10:52:19;;;;;;;;;;;;;;;21.20;nan;99371.25;4844663;29;20008;-79
2021/07/23 10:55:04;;;;;;;;;;;;;;;21.26;nan;99367.22;4836711;29;19935;-79
2021/07/23 10:57:33;;;;;;;;;;;;;;;20.97;nan;99361.50;4840845;29;19932;-80
2021/07/23 11:00:00;;;;;;;;;;;;;;;20.41;nan;99367.28;4851889;29;19929;-79
2021/07/23 11:02:30;;;;;;;;;;;;;;;20.52;nan;99367.50;4843378;29;19980;-80
2021/07/23 11:05:04;;;;;;;;;;;;;;;20.39;nan;99363.31;4842221;29;19936;-80
2021/07/23 11:07:31;;;;;;;;;;;;;;;20.40;nan;99359.25;4837799;29;19928;-81
2021/07/23 11:09:59;;;;;;;;;;;;;;;20.61;nan;99356.09;4843631;29;19928;-81
2021/07/23 11:12:31;;;;;;;;;;;;;;;20.64;nan;99351.50;4842534;29;19935;-81
2021/07/23 11:15:01;;;;;;;;;;;;;;;20.76;nan;99347.63;4840879;29;19935;-81
2021/07/23 11:17:28;;;;;;;;;;;;;;;20.33;nan;99339.72;4842790;29;19933;-80
2021/07/23 11:19:58;;;;;;;;;;;;;;;20.06;nan;99334.19;4845613;29;19929;-81
2021/07/23 11:22:32;;;;;;;;;;;;;;;20.08;nan;99337.34;4857462;29;19928;-78
2021/07/23 11:25:00;;;;;;;;;;;;;;;20.52;nan;99327.00;4865154;29;20303;-76
2021/07/23 11:27:29;;;;;;;;;;;;;;;21.06;nan;99332.22;4848082;29;19934;-81
2021/07/23 11:30:35;;;;;;;;;;;;;;;21.05;nan;99331.44;4863297;29;19928;-78
2021/07/23 11:33:38;;;;;;;;;;;;;;;20.75;nan;99329.78;4853683;29;20307;-78
2021/07/23 11:36:06;;;;;;;;;;;;;;;21.10;nan;99330.75;4876905;29;19932;-79
2021/07/23 11:39:00;;;;;;;;;;;;;;;21.20;nan;99323.69;4845524;29;19931;-79
2021/07/23 11:42:01;;;;;;;;;;;;;;;21.31;nan;99323.16;4831446;29;20388;-79
2021/07/23 11:44:29;;;;;;;;;;;;;;;21.05;nan;99313.63;4846385;29;19928;-79
2021/07/23 11:47:01;;;;;;;;;;;;;;;21.04;nan;99312.81;4861387;29;19950;-79
2021/07/23 11:49:33;;;;;;;;;;;;;;;21.11;nan;99308.81;4862655;29;20278;-79
2021/07/23 11:52:23;;;;;;;;;;;;;;;21.02;nan;99309.69;4862527;29;20398;-79
2021/07/23 11:55:05;;;;;;;;;;;;;;;20.97;nan;99312.44;4862167;29;19928;-79
2021/07/23 11:57:37;;;;;;;;;;;;;;;21.18;nan;99312.06;4877425;29;19934;-79
2021/07/23 12:00:24;;;;;;;;;;;;;;;21.21;nan;99310.28;4862225;29;20380;-79
2021/07/23 12:02:55;;;;;;;;;;;;;;;20.85;nan;99304.94;4846702;29;19931;-79
2021/07/23 12:05:40;;;;;;;;;;;;;;;20.98;nan;99303.41;4846964;29;20295;-79
2021/07/23 12:08:20;;;;;;;;;;;;;;;21.27;nan;99297.75;4843752;29;19939;-79
2021/07/23 12:11:13;;;;;;;;;;;;;;;20.68;nan;99290.41;4842130;29;19928;-79
2021/07/23 12:13:47;;;;;;;;;;;;;;;20.53;nan;99294.50;4821062;29;19928;-79
2021/07/23 12:16:21;;;;;;;;;;;;;;;20.71;nan;99294.34;4856936;29;20428;-79
2021/07/23 12:18:58;;;;;;;;;;;;;;;20.76;nan;99291.63;4853220;29;19936;-79
2021/07/23 12:21:31;;;;;;;;;;;;;;;20.84;nan;99292.03;4865779;29;19927;-79
2021/07/23 12:24:03;;;;;;;;;;;;;;;21.00;nan;99295.19;4882078;29;19935;-79
2021/07/23 12:26:38;;;;;;;;;;;;;;;21.25;nan;99290.97;4882075;29;20299;-80
2021/07/23 12:29:06;;;;;;;;;;;;;;;20.83;nan;99284.75;4865663;29;19928;-79
2021/07/23 12:31:37;;;;;;;;;;;;;;;20.98;nan;99288.41;4850946;29;19935;-79
2021/07/23 12:34:19;;;;;;;;;;;;;;;21.01;nan;99278.91;4863486;29;19983;-79
2021/07/23 12:36:48;;;;;;;;;;;;;;;20.39;nan;99275.34;4859656;29;19928;-79
2021/07/23 12:39:15;;;;;;;;;;;;;;;20.83;nan;99281.91;4850074;29;19928;-79
2021/07/23 12:41:45;;;;;;;;;;;;;;;20.84;nan;99280.66;4865799;29;19934;-79
2021/07/23 12:44:13;;;;;;;;;;;;;;;20.75;nan;99270.16;4881990;29;19934;-79
2021/07/23 12:46:41;;;;;;;;;;;;;;;20.92;nan;99273.31;4849957;29;19934;-79
2021/07/23 12:49:09;;;;;;;;;;;;;;;20.81;nan;99264.59;4865180;29;20392;-79
2021/07/23 12:51:37;;;;;;;;;;;;;;;20.73;nan;99271.94;4881676;29;19927;-79
2021/07/23 12:54:05;;;;;;;;;;;;;;;20.62;nan;99280.22;4881637;29;19950;-79
2021/07/23 12:56:33;;;;;;;;;;;;;;;20.45;nan;99276.25;4881766;29;19934;-79
2021/07/23 12:59:00;;;;;;;;;;;;;;;20.86;nan;99273.22;4864960;29;19950;-79
2021/07/23 13:01:27;;;;;;;;;;;;;;;20.79;nan;99275.66;4865123;29;20319;-79
2021/07/23 13:03:55;;;;;;;;;;;;;;;20.75;nan;99267.31;4881453;29;19928;-79
2021/07/23 13:06:23;;;;;;;;;;;;;;;20.73;nan;99263.41;4864623;29;20402;-79
2021/07/23 13:08:51;;;;;;;;;;;;;;;20.48;nan;99266.75;4881452;29;19942;-79
2021/07/23 13:11:20;;;;;;;;;;;;;;;20.16;nan;99267.66;4881361;29;19935;-79
2021/07/23 13:13:48;;;;;;;;;;;;;;;19.94;nan;99281.31;4871729;29;19928;-79
2021/07/23 13:16:15;;;;;;;;;;;;;;;20.52;nan;99273.81;4852070;29;20344;-79
2021/07/23 13:18:44;;;;;;;;;;;;;;;20.52;nan;99278.75;4849248;29;19990;-79
2021/07/23 13:21:14;;;;;;;;;;;;;;;20.43;nan;99267.47;4848686;29;19983;-79
2021/07/23 13:23:41;;;;;;;;;;;;;;;20.52;nan;99265.31;4864442;29;20291;-79
2021/07/23 13:26:09;;;;;;;;;;;;;;;20.34;nan;99264.69;4864479;29;19927;-79
2021/07/23 13:28:36;;;;;;;;;;;;;;;20.37;nan;99261.66;4849279;29;20295;-79
2021/07/23 13:31:03;;;;;;;;;;;;;;;20.24;nan;99268.84;4849396;29;19936;-80